^^
Grace C. Lehan Memorial Weather Station Historical Data
Daily Summary for February 6, 2021 Units:  Metric    English   Both
Daily Weekly Monthly Yearly
  High: Low: Average:
Temperature: 9.6 °C -1.3 °C 1.2 °C
Dew Point: 2.7 °C -2.6 °C -1 °C
Humidity: 93.6% 61.9% 86%
Wind Speed: 1.3km/h 0km/h 0km/h
Wind Gust: 8km/h - -
Wind- - West
Pressure: 1030.7 hPa 1028.7 hPa -
Precipitation: 0 mm    
 
 
Tabular Data for February 6, 2021
Time Temperature Dew Point Pressure Wind Wind Speed Wind Gust Humidity Rainfall Rate (Hourly) solar
00:09 2.1 °C -0.7 °C 1028.7 hPa Calm     82% 0 mm 0 W/m2
00:14 1.9 °C -0.8 °C 1028.7 hPa Calm     82% 0 mm 0 W/m2
00:19 1.8 °C -0.9 °C 1028.7 hPa Calm     82.4% 0 mm 0 W/m2
00:24 1.7 °C -0.9 °C 1028.7 hPa Calm     83% 0 mm 0 W/m2
00:29 1.6 °C -0.9 °C 1028.7 hPa Calm     83.3% 0 mm 0 W/m2
00:34 1.6 °C -0.9 °C 1028.7 hPa Calm     84% 0 mm 0 W/m2
00:39 1.5 °C -0.8 °C 1029 hPa Calm     84.7% 0 mm 0 W/m2
00:44 1.4 °C -0.8 °C 1029 hPa Calm     85% 0 mm 0 W/m2
00:49 1.4 °C -0.7 °C 1029 hPa Calm     85.7% 0 mm 0 W/m2
00:54 1.4 °C -0.7 °C 1029.3 hPa Calm     86% 0 mm 0 W/m2
00:59 1.3 °C -0.7 °C 1029.3 hPa Calm     86% 0 mm 0 W/m2
01:04 1.3 °C -0.8 °C 1029.3 hPa Calm     86% 0 mm 0 W/m2
01:09 1.2 °C -0.9 °C 1029.3 hPa Calm     86% 0 mm 0 W/m2
01:14 1.1 °C -0.9 °C 1029 hPa Calm     86% 0 mm 0 W/m2
01:19 1.1 °C -1 °C 1029.3 hPa Calm     86.3% 0 mm 0 W/m2
01:24 0.9 °C -1 °C 1029.3 hPa Calm     86.9% 0 mm 0 W/m2
01:29 0.9 °C -1.1 °C 1029.3 hPa Calm     86.7% 0 mm 0 W/m2
01:34 0.8 °C -1.1 °C 1029 hPa Calm     87% 0 mm 0 W/m2
01:39 0.8 °C -1.1 °C 1029 hPa Calm     87% 0 mm 0 W/m2
01:44 0.8 °C -1.2 °C 1029 hPa Calm     87% 0 mm 0 W/m2
01:49 0.7 °C -1.2 °C 1029 hPa Calm     87% 0 mm 0 W/m2
01:54 0.6 °C -1.3 °C 1029 hPa Calm     87% 0 mm 0 W/m2
01:59 0.6 °C -1.3 °C 1029 hPa Calm     87% 0 mm 0 W/m2
02:04 0.5 °C -1.4 °C 1029 hPa Calm     87% 0 mm 0 W/m2
02:09 0.4 °C -1.5 °C 1029 hPa Calm     87% 0 mm 0 W/m2
02:14 0.4 °C -1.5 °C 1029 hPa Calm     87.4% 0 mm 0 W/m2
02:19 0.3 °C -1.4 °C 1029 hPa Calm     88% 0 mm 0 W/m2
02:24 0.3 °C -1.5 °C 1029 hPa Calm     88% 0 mm 0 W/m2
02:29 0.2 °C -1.5 °C 1029 hPa Calm     88% 0 mm 0 W/m2
02:34 0.2 °C -1.6 °C 1029 hPa Calm     88% 0 mm 0 W/m2
02:39 0.2 °C -1.6 °C 1029 hPa Calm     88% 0 mm 0 W/m2
02:44 0.2 °C -1.6 °C 1029 hPa Calm     88% 0 mm 0 W/m2
02:49 0.1 °C -1.6 °C 1029.3 hPa Calm     88.5% 0 mm 0 W/m2
02:54 0.1 °C -1.5 °C 1029.3 hPa Calm     89% 0 mm 0 W/m2
02:59 0.1 °C -1.5 °C 1029.3 hPa Calm     89% 0 mm 0 W/m2
03:04 0.1 °C -1.6 °C 1029.3 hPa Calm     89% 0 mm 0 W/m2
03:09 0 °C -1.4 °C 1029.3 hPa Calm     89.8% 0 mm 0 W/m2
03:14 -0.1 °C -1.6 °C 1029.3 hPa Calm     89.1% 0 mm 0 W/m2
03:19 -0.1 °C -1.7 °C 1029.3 hPa Calm     89% 0 mm 0 W/m2
03:24 -0.2 °C -1.7 °C 1029.3 hPa Calm     89% 0 mm 0 W/m2
03:29 -0.2 °C -1.8 °C 1029.7 hPa Calm     89% 0 mm 0 W/m2
03:34 -0.2 °C -1.8 °C 1029.7 hPa Calm     89% 0 mm 0 W/m2
03:39 -0.3 °C -1.8 °C 1029.7 hPa Calm     89% 0 mm 0 W/m2
03:44 -0.3 °C -1.9 °C 1029.7 hPa Calm     89% 0 mm 0 W/m2
03:49 -0.3 °C -1.9 °C 1029.7 hPa Calm     89% 0 mm 0 W/m2
03:54 -0.3 °C -1.8 °C 1029.7 hPa Calm     89.8% 0 mm 0 W/m2
03:59 -0.3 °C -1.8 °C 1029.7 hPa Calm     90% 0 mm 0 W/m2
04:00 -0.3 °C -1.8 °C 1029.7 hPa Calm     90% 0 mm 0 W/m2
04:09 -0.4 °C -1.8 °C 1029.7 hPa Calm     90% 0 mm 0 W/m2
04:14 -0.4 °C -1.9 °C 1029.7 hPa Calm     90% 0 mm 0 W/m2
04:19 -0.4 °C -1.9 °C 1029.7 hPa Calm     90% 0 mm 0 W/m2
04:24 -0.5 °C -1.9 °C 1029.7 hPa Calm     90% 0 mm 0 W/m2
04:29 -0.5 °C -1.9 °C 1029.7 hPa Calm     90% 0 mm 0 W/m2
04:34 -0.6 °C -2 °C 1029.7 hPa Calm     90% 0 mm 0 W/m2
04:39 -0.6 °C -2.1 °C 1029.7 hPa Calm     90% 0 mm 0 W/m2
04:44 -0.7 °C -2.1 °C 1029.7 hPa Calm     90% 0 mm 0 W/m2
04:49 -0.7 °C -2.1 °C 1029.7 hPa Calm     90% 0 mm 0 W/m2
04:54 -0.7 °C -2.1 °C 1030 hPa Calm     90% 0 mm 0 W/m2
04:59 -0.7 °C -2.2 °C 1030 hPa Calm     90% 0 mm 0 W/m2
05:04 -0.7 °C -2.2 °C 1030 hPa Calm     90% 0 mm 0 W/m2
05:09 -0.8 °C -2.1 °C 1030 hPa Calm     91% 0 mm 0 W/m2
05:14 -0.8 °C -2.1 °C 1030 hPa Calm     91% 0 mm 0 W/m2
05:19 -0.8 °C -2.1 °C 1030 hPa Calm     91% 0 mm 0 W/m2
05:24 -0.8 °C -2.1 °C 1030 hPa Calm     91% 0 mm 0 W/m2
05:29 -0.8 °C -2.1 °C 1030 hPa Calm     91% 0 mm 0 W/m2
05:34 -0.8 °C -2.1 °C 1030.4 hPa Calm     91% 0 mm 0 W/m2
05:39 -0.9 °C -2.2 °C 1030.4 hPa Calm     91% 0 mm 0 W/m2
05:44 -0.9 °C -2.2 °C 1030.4 hPa Calm     91% 0 mm 0 W/m2
05:49 -1 °C -2.3 °C 1030 hPa Calm     91% 0 mm 0 W/m2
05:54 -1 °C -2.3 °C 1030.4 hPa Calm     91% 0 mm 0 W/m2
05:59 -1.1 °C -2.3 °C 1030.4 hPa Calm     91% 0 mm 0 W/m2
06:04 -1.1 °C -2.4 °C 1030.4 hPa Calm     91% 0 mm 0 W/m2
06:09 -1.2 °C -2.4 °C 1030.4 hPa Calm     91% 0 mm 0 W/m2
06:14 -1.2 °C -2.4 °C 1030.7 hPa Calm     91% 0 mm 0 W/m2
06:19 -1.2 °C -2.5 °C 1030.7 hPa Calm     91% 0 mm 0 W/m2
06:24 -1.2 °C -2.5 °C 1030.7 hPa Calm     91% 0 mm 0 W/m2
06:29 -1.3 °C -2.6 °C 1030.4 hPa Calm     91% 0 mm 0 W/m2
06:34 -1.3 °C -2.6 °C 1030.4 hPa Calm     91% 0 mm 0 W/m2
06:39 -1.3 °C -2.6 °C 1030.4 hPa Calm     91% 0 mm 0 W/m2
06:44 -1.3 °C -2.4 °C 1030 hPa Calm     92% 0 mm 0 W/m2
06:49 -1.3 °C -2.4 °C 1030 hPa Calm     92% 0 mm 0 W/m2
06:54 -1.3 °C -2.4 °C 1030.4 hPa Calm     92% 0 mm 0 W/m2
06:59 -1.3 °C -2.4 °C 1030.4 hPa Calm     92% 0 mm 0 W/m2
07:04 -1.3 °C -2.4 °C 1030.4 hPa Calm     92% 0 mm 0 W/m2
07:09 -1.3 °C -2.4 °C 1030.4 hPa Calm     92% 0 mm 0 W/m2
07:14 -1.3 °C -2.4 °C 1030.4 hPa Calm     92% 0 mm 0 W/m2
07:19 -1.3 °C -2.4 °C 1030.4 hPa Calm     92% 0 mm 0 W/m2
07:24 -1.3 °C -2.4 °C 1030 hPa Calm     92% 0 mm 0 W/m2
07:29 -1.3 °C -2.4 °C 1030 hPa Calm     92% 0 mm 0 W/m2
07:34 -1.3 °C -2.4 °C 1030.4 hPa Calm     92% 0 mm 5 W/m2
07:39 -1.3 °C -2.4 °C 1030.4 hPa Calm     92% 0 mm 9 W/m2
07:44 -1.3 °C -2.4 °C 1030.4 hPa Calm     92% 0 mm 12 W/m2
07:49 -1.3 °C -2.4 °C 1030.4 hPa Calm     92% 0 mm 14 W/m2
07:54 -1.3 °C -2.4 °C 1030.4 hPa Calm     92% 0 mm 16 W/m2
07:58 -1.3 °C -2.4 °C 1030.4 hPa Calm     92% 0 mm 21 W/m2
08:00 -1.3 °C -2.3 °C 1030.4 hPa Calm     93% 0 mm 26 W/m2
08:09 -1 °C -2 °C 1030.4 hPa Calm     93% 0 mm 35 W/m2
08:14 -0.8 °C -1.8 °C 1030.4 hPa Calm     93% 0 mm 37 W/m2
08:19 -0.7 °C -1.6 °C 1030.4 hPa Calm     93% 0 mm 28 W/m2
08:24 -0.6 °C -1.6 °C 1030.4 hPa NW 0.2 km/h 1.6 km/h 93% 0 mm 37 W/m2
08:29 -0.5 °C -1.5 °C 1030.4 hPa NW 0.2 km/h 3.2 km/h 93% 0 mm 37 W/m2
08:34 -0.4 °C -1.4 °C 1030.4 hPa NW 0.3 km/h 3.2 km/h 93% 0 mm 79 W/m2
08:39 -0.3 °C -1.3 °C 1030.4 hPa Calm   3.2 km/h 93% 0 mm 63 W/m2
08:44 -0.2 °C -1.1 °C 1030.4 hPa Calm   3.2 km/h 93% 0 mm 46 W/m2
08:49 0.1 °C -0.9 °C 1030.4 hPa Calm   3.2 km/h 93% 0 mm 53 W/m2
08:54 0.3 °C -0.7 °C 1030.7 hPa Calm   3.2 km/h 93% 0 mm 72 W/m2
08:59 0.4 °C -0.6 °C 1030.7 hPa Calm   3.2 km/h 93% 0 mm 218 W/m2
09:04 0.8 °C -0.2 °C 1030.4 hPa NW 0.2 km/h 3.2 km/h 93% 0 mm 257 W/m2
09:09 1.2 °C 0.3 °C 1030.4 hPa NNW 1 km/h 4.8 km/h 93.6% 0 mm 271 W/m2
09:14 1.7 °C 0.4 °C 1030.4 hPa Calm   4.8 km/h 91.7% 0 mm 287 W/m2
09:19 2.2 °C 0.7 °C 1030.4 hPa Calm   4.8 km/h 90.2% 0 mm 297 W/m2
09:24 2.8 °C 1.1 °C 1030.4 hPa Calm   4.8 km/h 88.8% 0 mm 311 W/m2
09:29 3.4 °C 1.4 °C 1030.7 hPa NNW 1 km/h 4.8 km/h 86.5% 0 mm 327 W/m2
09:34 4 °C 1.3 °C 1030.4 hPa Calm   4.8 km/h 82.5% 0 mm 341 W/m2
09:39 4.6 °C 1.6 °C 1030.4 hPa Calm   1.6 km/h 81.1% 0 mm 352 W/m2
09:44 5.2 °C 1.8 °C 1030.4 hPa Calm   1.6 km/h 78.8% 0 mm 364 W/m2
09:49 5.6 °C 1.6 °C 1030.7 hPa Calm   1.6 km/h 75.5% 0 mm 374 W/m2
09:54 5.8 °C 1.5 °C 1030.7 hPa Calm   1.6 km/h 73.6% 0 mm 387 W/m2
09:59 6.1 °C 1.7 °C 1030.7 hPa Calm   1.6 km/h 73.2% 0 mm 399 W/m2
10:04 6.3 °C 1.6 °C 1030.4 hPa Calm   1.6 km/h 72% 0 mm 413 W/m2
10:09 6.4 °C 1.6 °C 1030.4 hPa Calm     71.2% 0 mm 418 W/m2
10:14 6.6 °C 1.7 °C 1030.4 hPa Calm     71% 0 mm 418 W/m2
10:19 6.7 °C 1.5 °C 1030.4 hPa Calm     69.3% 0 mm 415 W/m2
10:24 6.8 °C 1.3 °C 1030 hPa Calm     68.2% 0 mm 403 W/m2
10:29 6.6 °C 1.2 °C 1030 hPa NNW 0.5 km/h 3.2 km/h 68% 0 mm 439 W/m2
10:34 6.5 °C 1.1 °C 1030 hPa NNW 1.3 km/h 6.4 km/h 68.2% 0 mm 360 W/m2
10:39 6.4 °C 1.1 °C 1030 hPa North 1 km/h 6.4 km/h 68.6% 0 mm 360 W/m2
10:44 6.3 °C 0.9 °C 1030 hPa Calm   6.4 km/h 68.3% 0 mm 367 W/m2
10:49 6.3 °C 1.1 °C 1030 hPa Calm   6.4 km/h 69.3% 0 mm 218 W/m2
10:54 6.3 °C 1.1 °C 1030 hPa Calm   6.4 km/h 69.3% 0 mm 457 W/m2
10:59 6.4 °C 1.3 °C 1030 hPa Calm   6.4 km/h 69.8% 0 mm 367 W/m2
11:04 6.5 °C 1.3 °C 1030 hPa Calm   6.4 km/h 69.6% 0 mm 355 W/m2
11:09 6.6 °C 1.6 °C 1030 hPa NNE 1 km/h 8 km/h 70.3% 0 mm 457 W/m2
11:14 6.9 °C 1.8 °C 1030 hPa Calm   8 km/h 69.9% 0 mm 536 W/m2
11:19 7.4 °C 1.9 °C 1030 hPa Calm   8 km/h 67.9% 0 mm 541 W/m2
11:24 7.9 °C 2.1 °C 1030 hPa Calm   8 km/h 66.7% 0 mm 550 W/m2
11:29 8.5 °C 2.7 °C 1030 hPa Calm   8 km/h 66.8% 0 mm 561 W/m2
11:34 8.9 °C 2.4 °C 1029.7 hPa Calm   8 km/h 63.9% 0 mm 564 W/m2
11:39 9.2 °C 2.6 °C 1029.7 hPa Calm   1.6 km/h 63% 0 mm 563 W/m2
11:43 9.6 °C 2.6 °C 1029.7 hPa Calm   1.6 km/h 61.9% 0 mm 548 W/m2
Hartford County Weather
Compliments of Weather Underground - 2 mb